• Join FlightAware (Why Join?)
  • Login
  • US Flag 
03:12PM EDT


 

Airport Tracker/Info


-or-


 

Live Flight TrackerFlight Track Log ✈ UAL4274 ✈ 15-Sep-2013 ✈ KRIC - KCLE

Flight Track Log - Related Links

Times and Time Zones

All times are in EDT time to prevent confusion due to time zone crossing. See the UAL4274 flight status page for this flight to view local times or setup timezone preferences in your user account.

Time Position Orientation Groundspeed Altitude Reporting Facility
EDT Latitude Longitude Course Direction KTS MPH feet Rate Location/Type
10:28AM 37.5500 -77.3333 305° West 181 208 2,200  Level Potomac TRACON
10:30AM 37.6047 -77.4136 311° West 211 243 5,000 2,280 Climbing Washington Center
10:31AM 37.7161 -77.5474 307° West  Level Estimated
10:31AM 37.6472 -77.4908 305° West 240 276 7,600  Level Washington Center
10:32AM 37.7579 -77.6518 297° West  Level FlightAware Approximate
10:32AM 37.6897 -77.5678 305° West 266 306 10,100  Level Washington Center
10:33AM 37.8285 -77.7275 310° West  Level Estimated
10:33AM 37.7364 -77.6506 306° West 282 325 11,600  Level Washington Center
10:34AM 37.8990 -77.8034 305° West  Level Estimated
10:34AM 37.7892 -77.7414 306° West 299 344 13,000  Level Washington Center
10:35AM 37.8478 -77.8375 308° West 329 379 13,000  Level Washington Center
10:36AM 37.9469 -77.8828 340° North 342 394 13,000 480 Level Washington Center
10:37AM 38.0381 -77.9197 342° North 349 402 14,000 1,140 Climbing Washington Center
10:38AM 38.1375 -77.9544 345° North 365 420 15,300 1,260 Climbing Washington Center
10:39AM 38.2389 -77.9869 346° North 372 428 16,600 1,260 Climbing Washington Center
10:40AM 38.3406 -78.0244 344° North 372 428 17,900 1,140 Climbing Washington Center
10:41AM 38.4397 -78.0594 345° North 372 428 18,900 1,140 Climbing Washington Center
10:42AM 38.5414 -78.0947 345° North 372 428 20,200 1,320 Climbing Washington Center
10:43AM 38.6428 -78.1328 344° North 372 428 21,500 1,260 Climbing Washington Center
10:44AM 38.7442 -78.1681 345° North 372 428 22,800 1,260 Climbing Washington Center
10:45AM 38.8456 -78.2036 345° North 377 434 24,100 1,260 Climbing Washington Center
10:46AM 38.9639 -78.2214 353° North 377 434 25,400 1,260 Climbing Washington Center
10:47AM 39.0700 -78.2306 356° North 377 434 26,700 780 Climbing Washington Center
10:48AM 39.1825 -78.2400 356° North 387 445 27,000 120 Climbing Washington Center
10:49AM 39.2989 -78.2522 355° North 397 457 27,000  Level Washington Center
10:50AM 39.4214 -78.2647 355° North 420 483 27,000  Level Washington Center
10:51AM 39.5442 -78.2772 356° North 437 503 27,000  Level Washington Center
10:52AM 39.7208 -78.2975 355° North 460 529 27,000  Level Cleveland Center
10:53AM 39.8603 -78.3222 352° North 463 533 27,000  Level Cleveland Center
10:54AM 39.9500 -78.4342 316° Northwest 441 507 27,000  Level Cleveland Center
10:55AM 40.0286 -78.5594 309° West 443 510 27,000  Level Cleveland Center
10:56AM 40.1067 -78.6811 310° West 439 505 27,000  Level Cleveland Center
10:57AM 40.2019 -78.8294 310° West 442 509 27,000  Level Cleveland Center
10:58AM 40.2794 -78.9533 309° West 438 504 27,000  Level Cleveland Center
10:59AM 40.3561 -79.0767 309° West 434 499 27,000  Level Cleveland Center
11:00AM 40.4333 -79.1997 310° West 435 501 27,000  Level Cleveland Center
11:01AM 40.5142 -79.3278 310° West 443 510 27,000  Level Cleveland Center
11:02AM 40.5903 -79.4511 309° West 440 506 27,000  Level Cleveland Center
11:04AM 40.6658 -79.5753 309° West 438 504 27,000 -300 Level Cleveland Center
11:05AM 40.7569 -79.7231 309° West 438 504 26,500 -780 Descending Cleveland Center
11:06AM 40.8294 -79.8425 309° West 428 493 25,500 -1,020 Descending Cleveland Center
11:07AM 40.9014 -79.9606 309° West 419 482 24,500 -780 Descending Cleveland Center
11:08AM 40.9728 -80.0786 309° West 415 478 24,000 -300 Descending Cleveland Center
11:09AM 41.0442 -80.1953 309° West 413 475 24,000  Level Cleveland Center
11:10AM 41.1144 -80.3122 309° West 409 471 24,000  Level Cleveland Center
11:11AM 41.1983 -80.4503 309° West 408 470 24,000 -540 Level Cleveland Center
11:12AM 41.2672 -80.5656 309° West 399 459 22,900 -1,860 Descending Cleveland Center
11:13AM 41.3314 -80.6761 308° West 384 442 20,200 -2,520 Descending Cleveland Center
11:14AM 41.3725 -80.7883 296° West 343 395 17,700 -2,580 Descending Cleveland Center
11:14AM 41.3842 -80.8069 310° West 322 371 17,200 -3,900 Descending Cleveland Center
11:14AM 41.3869 -80.8242 282° West 312 359 16,800 -2,580 Descending Cleveland Center
11:15AM 41.4114 -80.8878 297° West 307 353 14,900 -2,880 Descending Cleveland Center
11:15AM 41.4250 -80.9217 298° West 295 339 13,900 -3,060 Descending Cleveland Center
11:16AM 41.4400 -80.9892 287° West 295 339 11,800 -3,060 Descending Cleveland Center
11:16AM 41.4478 -81.0253 286° West 287 330 10,800 -1,800 Descending Cleveland Center
11:17AM 41.4594 -81.0933 283° West 289 333 10,000 -900 Descending Cleveland Center
11:17AM 41.4681 -81.1317 287° West 297 342 9,900  Descending Cleveland Center
11:18AM 41.4847 -81.2258 283° West 309 356 10,000  Climbing Cleveland Center
11:18AM 41.4894 -81.2464 287° West 318 366 9,900 -240 Descending Cleveland Center
11:19AM 41.4972 -81.3325 277° West 287 330 9,800 -300 Descending Cleveland Center
11:19AM 41.4972 -81.3481 270° West 262 302 9,600 -1,980 Descending Cleveland Center
11:20AM 41.4931 -81.4453 267° West 249 287 7,500 -1,980 Descending Cleveland Center
11:21AM 41.4908 -81.5206 268° West 253 291 5,900 -1,980 Descending Cleveland Center
11:21AM 41.4922 -81.5483 274° West 256 295 5,300 -1,800 Descending Cleveland Center
11:22AM 41.4892 -81.6144 266° West 254 292 4,100 -1,620 Descending Cleveland Center
11:22AM 41.4903 -81.6403 273° West 251 289 3,700 -900 Descending Cleveland Center
11:23AM 41.4867 -81.7261 267° West 228 262 3,000 -840 Descending Cleveland Center
11:24AM 41.4569 -81.7744 231° Southwest 146 168 2,100 -840 Descending Cleveland Center
11:25AM 41.4364 -81.8036 227° Southwest 151 174 1,500 -660 Descending Cleveland Center
11:25AM 41.4300 -81.8175 238° Southwest 148 170 1,300 -720 Descending Cleveland Center
11:26AM 41.4139 -81.8408 227° Southwest 136 157 800 -780 Descending Cleveland Center